createdAt,value
2023-04-13T00:01:23.983Z,90.70
2023-04-13T00:03:52.287Z,86.80
2023-04-13T00:06:22.776Z,87.00
2023-04-13T00:08:54.758Z,89.80
2023-04-13T00:11:24.223Z,91.10
2023-04-13T00:13:53.387Z,93.10
2023-04-13T00:16:22.280Z,91.90
2023-04-13T00:18:52.358Z,90.10
2023-04-13T00:21:20.411Z,92.90
2023-04-13T00:23:48.461Z,93.10
2023-04-13T00:26:16.498Z,90.70
2023-04-13T00:28:45.852Z,91.60
2023-04-13T00:31:13.935Z,92.90
2023-04-13T00:33:42.030Z,92.40
2023-04-13T00:36:10.872Z,93.40
2023-04-13T00:38:39.275Z,94.40
2023-04-13T00:41:08.115Z,95.20
2023-04-13T00:43:36.697Z,95.10
2023-04-13T00:46:06.861Z,94.10
2023-04-13T00:48:35.914Z,96.50
2023-04-13T00:51:04.114Z,97.70
2023-04-13T00:53:33.548Z,95.80
2023-04-13T00:56:03.969Z,96.40
2023-04-13T00:58:32.161Z,97.80
2023-04-13T01:01:00.239Z,94.60
2023-04-13T01:03:29.895Z,95.30
2023-04-13T01:06:14.534Z,95.60
2023-04-13T01:08:49.088Z,95.80
2023-04-13T01:11:26.016Z,97.40
2023-04-13T01:14:01.852Z,97.30
2023-04-13T01:16:35.607Z,96.60
2023-04-13T01:19:07.324Z,96.90
2023-04-13T01:21:36.920Z,95.10
2023-04-13T01:24:17.658Z,96.40
2023-04-13T01:26:54.801Z,94.70
2023-04-13T01:29:25.937Z,94.50
2023-04-13T01:31:54.982Z,94.20
2023-04-13T01:34:23.544Z,95.40
2023-04-13T01:36:52.204Z,94.90
2023-04-13T01:39:20.891Z,95.70
2023-04-13T01:41:49.119Z,94.50
2023-04-13T01:44:17.934Z,96.70
2023-04-13T01:46:52.375Z,95.50
2023-04-13T01:49:23.230Z,96.00
2023-04-13T01:51:55.151Z,96.70
2023-04-13T01:54:27.300Z,97.90
2023-04-13T01:57:00.143Z,99.40
2023-04-13T01:59:28.513Z,99.90
2023-04-13T02:01:59.255Z,99.20
2023-04-13T02:04:28.084Z,99.90
2023-04-13T02:06:56.355Z,99.90
2023-04-13T02:09:24.455Z,99.90
2023-04-13T02:11:52.755Z,99.90
2023-04-13T02:14:21.602Z,99.80
2023-04-13T02:16:49.736Z,99.90
2023-04-13T02:19:20.128Z,99.90
2023-04-13T02:21:48.270Z,99.90
2023-04-13T02:24:17.130Z,99.90
2023-04-13T02:26:45.257Z,99.90
2023-04-13T02:29:13.411Z,99.90
2023-04-13T02:31:44.156Z,99.90
2023-04-13T02:34:12.448Z,99.90
2023-04-13T02:36:41.876Z,99.90
2023-04-13T02:39:10.589Z,98.50
2023-04-13T02:41:39.105Z,99.90
2023-04-13T02:44:08.406Z,99.90
2023-04-13T02:46:36.447Z,99.70
2023-04-13T02:49:04.570Z,98.20
2023-04-13T02:51:32.782Z,98.70
2023-04-13T02:54:03.367Z,98.60
2023-04-13T02:56:31.754Z,98.30
2023-04-13T02:59:00.582Z,97.40
2023-04-13T03:01:29.483Z,97.30
2023-04-13T03:03:57.840Z,96.60
2023-04-13T03:06:26.175Z,96.40
2023-04-13T03:08:54.663Z,95.40
2023-04-13T03:11:26.259Z,95.30
2023-04-13T03:13:54.797Z,95.50
2023-04-13T03:16:22.893Z,92.40
2023-04-13T03:18:51.590Z,91.00
2023-04-13T03:21:19.679Z,83.10
2023-04-13T03:23:47.702Z,84.30
2023-04-13T03:26:15.733Z,85.20
2023-04-13T03:28:47.170Z,83.80
2023-04-13T03:31:15.384Z,84.60
2023-04-13T03:33:43.454Z,83.20
2023-04-13T03:36:12.327Z,88.40
2023-04-13T03:38:40.569Z,90.40
2023-04-13T03:41:09.353Z,85.70
2023-04-13T03:43:37.506Z,86.90
2023-04-13T03:46:07.852Z,86.30
2023-04-13T03:48:36.011Z,86.70
2023-04-13T03:51:04.251Z,90.20
2023-04-13T03:53:32.428Z,88.90
2023-04-13T03:56:00.596Z,90.30
2023-04-13T03:58:28.665Z,91.10
2023-04-13T04:00:56.833Z,92.60
2023-04-13T04:03:26.672Z,92.10
2023-04-13T04:05:55.646Z,90.20
2023-04-13T04:08:23.750Z,82.60
2023-04-13T04:10:52.052Z,80.20
2023-04-13T04:13:20.108Z,80.90
2023-04-13T04:15:48.200Z,83.20
2023-04-13T04:18:16.385Z,89.30
2023-04-13T04:20:45.948Z,90.70
2023-04-13T04:23:13.851Z,92.40
2023-04-13T04:25:41.995Z,94.70
2023-04-13T04:28:10.066Z,95.80
2023-04-13T04:30:38.189Z,94.40
2023-04-13T04:33:07.240Z,96.30
2023-04-13T04:35:35.414Z,95.90
2023-04-13T04:38:05.258Z,95.70
2023-04-13T04:40:35.780Z,95.50
2023-04-13T04:43:05.106Z,95.60
2023-04-13T04:45:36.381Z,95.80
2023-04-13T04:48:05.517Z,95.80
2023-04-13T04:50:34.353Z,95.30
2023-04-13T04:53:03.797Z,96.40
2023-04-13T04:55:31.918Z,95.70
2023-04-13T04:57:59.952Z,96.70
2023-04-13T05:00:30.777Z,95.00
2023-04-13T05:03:00.900Z,93.60
2023-04-13T05:05:30.251Z,92.70
2023-04-13T05:07:58.361Z,93.90
2023-04-13T05:10:28.741Z,93.60
2023-04-13T05:12:57.056Z,93.20
2023-04-13T05:15:26.646Z,95.20
2023-04-13T05:17:55.107Z,95.40
2023-04-13T05:20:23.260Z,94.20
2023-04-13T05:22:51.298Z,95.00
2023-04-13T05:25:19.847Z,95.50
2023-04-13T05:27:49.276Z,94.50
2023-04-13T05:30:17.626Z,95.30
2023-04-13T05:32:45.793Z,94.00
2023-04-13T05:35:13.864Z,94.60
2023-04-13T05:37:41.874Z,92.60
2023-04-13T05:40:13.915Z,92.30
2023-04-13T05:42:43.450Z,92.10
2023-04-13T05:45:13.096Z,83.80
2023-04-13T05:47:41.234Z,76.90
2023-04-13T05:50:10.328Z,79.80
2023-04-13T05:52:38.412Z,75.60
2023-04-13T05:55:07.598Z,75.30
2023-04-13T05:57:35.738Z,66.40
2023-04-13T06:00:05.072Z,76.80
2023-04-13T06:02:34.917Z,75.20
2023-04-13T06:05:05.117Z,69.50
2023-04-13T06:07:34.154Z,70.60
2023-04-13T06:10:02.341Z,65.40
2023-04-13T06:12:31.637Z,66.80
2023-04-13T06:14:59.677Z,71.90
2023-04-13T06:17:27.775Z,74.40
2023-04-13T06:19:57.377Z,70.30
2023-04-13T06:22:25.225Z,69.70
2023-04-13T06:24:53.342Z,64.60
2023-04-13T06:27:21.452Z,61.40
2023-04-13T06:29:49.779Z,67.60
2023-04-13T06:32:17.827Z,59.60
2023-04-13T06:34:45.946Z,58.40
2023-04-13T06:37:15.956Z,67.40
2023-04-13T06:39:44.044Z,59.00
2023-04-13T06:42:12.194Z,66.50
2023-04-13T06:44:40.227Z,55.90
2023-04-13T06:47:08.271Z,56.50
2023-04-13T06:49:36.433Z,45.90
2023-04-13T06:52:04.589Z,47.60
2023-04-13T06:54:33.986Z,51.00
2023-04-13T06:57:02.831Z,48.80
2023-04-13T06:59:31.016Z,48.40
2023-04-13T07:01:59.098Z,46.30
2023-04-13T07:04:29.552Z,46.30
2023-04-13T07:06:58.894Z,42.50
2023-04-13T07:09:27.410Z,44.80
2023-04-13T07:11:57.889Z,42.10
2023-04-13T07:14:25.947Z,41.00
2023-04-13T07:16:54.037Z,35.60
2023-04-13T07:19:23.718Z,34.80
2023-04-13T07:21:51.763Z,31.80
2023-04-13T07:24:20.540Z,38.30
2023-04-13T07:26:48.602Z,26.50
2023-04-13T07:29:18.453Z,30.20
2023-04-13T07:31:47.764Z,27.90
2023-04-13T07:34:16.300Z,26.50
2023-04-13T07:36:44.499Z,23.10
2023-04-13T07:39:12.550Z,28.00
2023-04-13T07:41:40.722Z,21.70
2023-04-13T07:44:08.818Z,19.00
2023-04-13T07:46:39.470Z,19.90
2023-04-13T07:49:07.557Z,22.20
2023-04-13T07:51:35.628Z,23.30
2023-04-13T07:54:03.804Z,20.60
2023-04-13T07:56:32.101Z,19.50
2023-04-13T07:59:00.393Z,23.10
2023-04-13T08:01:29.054Z,18.70
2023-04-13T08:03:58.649Z,23.70
2023-04-13T08:06:27.377Z,22.60
2023-04-13T08:08:55.600Z,11.80
2023-04-13T08:11:23.673Z,26.60
2023-04-13T08:13:51.945Z,2.40
2023-04-13T08:16:20.035Z,11.80
2023-04-13T08:18:48.141Z,9.00
2023-04-13T08:21:17.642Z,2.70
2023-04-13T08:23:45.498Z,1.80
2023-04-13T08:26:19.408Z,1.60
2023-04-13T08:28:49.171Z,5.20
2023-04-13T08:31:17.672Z,4.90
2023-04-13T08:33:45.769Z,6.20
2023-04-13T08:36:13.917Z,13.20
2023-04-13T08:38:43.408Z,17.50
2023-04-13T08:41:11.730Z,9.90
2023-04-13T08:43:40.722Z,7.40
2023-04-13T08:46:08.837Z,20.60
2023-04-13T08:48:52.812Z,16.30
2023-04-13T08:51:23.357Z,8.40
2023-04-13T08:53:54.738Z,14.40
2023-04-13T08:56:28.318Z,2.90
2023-04-13T08:59:06.861Z,12.10
2023-04-13T09:01:38.631Z,6.90
2023-04-13T09:04:09.840Z,19.40
2023-04-13T09:06:41.383Z,20.20
2023-04-13T09:09:13.669Z,22.80
2023-04-13T09:11:42.218Z,14.10
2023-04-13T09:14:10.471Z,21.60
2023-04-13T09:16:42.394Z,24.50
2023-04-13T09:19:12.855Z,23.50
2023-04-13T09:21:42.657Z,19.30
2023-04-13T09:24:12.748Z,18.20
2023-04-13T09:26:41.991Z,24.90
2023-04-13T09:29:12.680Z,19.50
2023-04-13T09:31:42.227Z,7.30
2023-04-13T09:34:13.140Z,37.30
2023-04-13T09:36:53.569Z,3.80
2023-04-13T09:39:27.910Z,21.40
2023-04-13T09:41:58.009Z,2.00
2023-04-13T09:44:28.396Z,13.60
2023-04-13T09:47:00.718Z,5.40
2023-04-13T09:49:38.670Z,18.90
2023-04-13T09:52:08.232Z,8.60
2023-04-13T09:54:38.528Z,1.80
2023-04-13T09:57:06.605Z,1.00
2023-04-13T09:59:35.643Z,1.00
2023-04-13T10:02:05.647Z,1.00
2023-04-13T10:04:37.056Z,8.10
2023-04-13T10:07:07.314Z,1.00
2023-04-13T10:09:36.674Z,1.00
2023-04-13T10:12:10.882Z,1.00
2023-04-13T10:14:40.844Z,1.00
2023-04-13T10:17:23.163Z,2.00
2023-04-13T10:19:54.232Z,1.00
2023-04-13T10:22:24.089Z,1.00
2023-04-13T10:24:53.208Z,1.00
2023-04-13T10:27:23.878Z,1.00
2023-04-13T10:29:51.970Z,1.00
2023-04-13T10:32:24.210Z,1.10
2023-04-13T10:34:53.345Z,1.60
2023-04-13T10:37:23.389Z,5.80
2023-04-13T10:40:05.621Z,8.00
2023-04-13T10:45:20.401Z,7.90
2023-04-13T10:47:48.612Z,1.00
2023-04-13T10:50:22.461Z,1.00
2023-04-13T10:52:58.421Z,1.00
2023-04-13T10:55:27.313Z,1.00
2023-04-13T10:57:57.480Z,1.00
2023-04-13T11:00:34.804Z,1.00
2023-04-13T11:03:15.289Z,1.00
2023-04-13T11:05:44.863Z,1.00
2023-04-13T11:08:20.555Z,1.00
2023-04-13T11:10:52.779Z,1.00
2023-04-13T11:13:24.974Z,1.00
2023-04-13T11:15:53.742Z,1.00
2023-04-13T11:18:26.738Z,1.00
2023-04-13T11:20:55.389Z,1.00
2023-04-13T11:23:24.621Z,1.00
2023-04-13T11:25:58.072Z,1.00
2023-04-13T11:28:38.225Z,1.00
2023-04-13T11:31:07.449Z,16.30
2023-04-13T11:33:37.806Z,27.00
2023-04-13T11:36:09.556Z,23.80
2023-04-13T11:38:40.853Z,18.90
2023-04-13T11:41:15.687Z,19.00
2023-04-13T11:43:48.317Z,24.00
2023-04-13T11:46:25.058Z,22.40
2023-04-13T11:48:54.266Z,23.00
2023-04-13T11:51:22.961Z,19.80
2023-04-13T11:53:51.662Z,20.60
2023-04-13T11:56:19.732Z,26.20
2023-04-13T11:58:53.119Z,25.50
2023-04-13T12:01:26.425Z,25.50
2023-04-13T12:04:12.754Z,27.40
2023-04-13T12:06:45.867Z,26.30
2023-04-13T12:09:17.942Z,32.90
2023-04-13T12:11:54.259Z,32.40
2023-04-13T12:17:04.463Z,35.00
2023-04-13T12:19:41.303Z,35.80
2023-04-13T12:22:12.205Z,34.90
2023-04-13T12:24:42.600Z,28.00
2023-04-13T12:27:18.409Z,30.80
2023-04-13T12:29:49.200Z,32.60
2023-04-13T12:32:17.546Z,32.80
2023-04-13T12:34:45.863Z,36.20
2023-04-13T12:37:14.007Z,26.50
2023-04-13T12:39:43.389Z,20.20
2023-04-13T12:42:12.120Z,22.40
2023-04-13T12:44:40.169Z,24.50
2023-04-13T12:47:09.704Z,25.90
2023-04-13T12:49:37.838Z,22.10
2023-04-13T12:52:06.187Z,20.80
2023-04-13T12:54:34.282Z,20.70
2023-04-13T12:57:02.507Z,19.10
2023-04-13T12:59:30.530Z,21.60
2023-04-13T13:01:58.616Z,19.30
2023-04-13T13:04:30.140Z,21.20
2023-04-13T13:06:58.361Z,20.50
2023-04-13T13:09:27.059Z,22.70
2023-04-13T13:11:56.117Z,24.60
2023-04-13T13:14:24.156Z,24.40
2023-04-13T13:16:53.105Z,24.10
2023-04-13T13:19:21.260Z,23.30
2023-04-13T13:21:50.724Z,22.40
2023-04-13T13:24:19.025Z,23.10
2023-04-13T13:29:23.940Z,21.40
2023-04-13T13:31:52.509Z,22.30
2023-04-13T13:34:20.703Z,21.90
2023-04-13T13:36:50.656Z,21.90
2023-04-13T13:39:21.018Z,22.40
2023-04-13T13:41:49.121Z,23.40
2023-04-13T13:44:18.413Z,22.30
2023-04-13T13:46:46.502Z,23.10
2023-04-13T13:49:14.614Z,22.90
2023-04-13T13:51:43.402Z,23.10
2023-04-13T13:54:12.817Z,23.70
2023-04-13T13:56:40.941Z,23.40
2023-04-13T13:59:09.046Z,25.20
2023-04-13T14:01:37.746Z,21.50
2023-04-13T14:04:09.433Z,26.20
2023-04-13T14:06:37.560Z,27.70
2023-04-13T14:09:06.590Z,14.80
2023-04-13T14:11:36.191Z,14.40
2023-04-13T14:14:14.817Z,15.80
2023-04-13T14:16:48.986Z,15.90
2023-04-13T14:19:18.168Z,14.40
2023-04-13T14:21:46.273Z,13.90
2023-04-13T14:24:14.299Z,13.20
2023-04-13T14:26:43.702Z,11.80
2023-04-13T14:29:11.866Z,12.70
2023-04-13T14:31:39.985Z,11.70
2023-04-13T14:34:08.832Z,10.90
2023-04-13T14:36:36.886Z,11.40
2023-04-13T14:39:05.760Z,12.90
2023-04-13T14:41:33.818Z,14.00
2023-04-13T14:44:03.301Z,15.00
2023-04-13T14:46:31.251Z,16.00
2023-04-13T14:48:59.550Z,16.90
2023-04-13T14:51:28.999Z,12.70
2023-04-13T14:53:57.574Z,10.60
2023-04-13T14:56:26.735Z,13.20
2023-04-13T14:58:54.819Z,13.00
2023-04-13T15:01:24.895Z,12.50
2023-04-13T15:03:54.613Z,9.00
2023-04-13T15:06:25.193Z,1.00
2023-04-13T15:08:54.171Z,1.00
2023-04-13T15:11:22.542Z,1.00
2023-04-13T15:13:50.658Z,1.00
2023-04-13T15:16:18.759Z,1.00
2023-04-13T15:18:48.210Z,1.00
2023-04-13T15:21:16.245Z,1.00
2023-04-13T15:23:44.286Z,1.00
2023-04-13T15:26:18.168Z,1.00
2023-04-13T15:28:46.492Z,1.00
2023-04-13T15:31:14.543Z,1.00
2023-04-13T15:33:42.953Z,1.00
2023-04-13T15:36:18.956Z,1.00
2023-04-13T15:38:47.078Z,1.00
2023-04-13T15:41:15.285Z,1.00
2023-04-13T15:43:44.113Z,1.00
2023-04-13T15:46:12.383Z,1.00
2023-04-13T15:48:40.484Z,1.00
2023-04-13T15:51:09.216Z,1.00
2023-04-13T15:53:38.719Z,1.00
2023-04-13T15:56:09.493Z,1.00
2023-04-13T15:58:37.537Z,1.00
2023-04-13T16:01:08.270Z,1.00
2023-04-13T16:03:39.121Z,1.00
2023-04-13T16:06:07.800Z,1.00
2023-04-13T16:08:36.129Z,1.00
2023-04-13T16:11:06.476Z,1.00
2023-04-13T16:13:48.605Z,1.00
2023-04-13T16:16:18.232Z,1.00
2023-04-13T16:18:46.459Z,1.00
2023-04-13T16:21:19.064Z,1.00
2023-04-13T16:23:47.173Z,1.00
2023-04-13T16:26:16.827Z,1.00
2023-04-13T16:28:44.965Z,1.00
2023-04-13T16:31:13.060Z,1.00
2023-04-13T16:33:41.175Z,1.00
2023-04-13T16:36:10.254Z,1.00
2023-04-13T16:38:40.465Z,1.00
2023-04-13T16:41:08.654Z,1.00
2023-04-13T16:43:38.228Z,1.00
2023-04-13T16:46:06.244Z,1.00
2023-04-13T16:48:34.310Z,1.00
2023-04-13T16:51:03.281Z,1.00
2023-04-13T16:53:31.711Z,1.00
2023-04-13T16:55:59.749Z,1.00
2023-04-13T16:58:27.851Z,1.00
2023-04-13T17:00:57.451Z,1.00
2023-04-13T17:03:25.810Z,1.00
2023-04-13T17:05:54.936Z,1.00
2023-04-13T17:08:23.633Z,1.00
2023-04-13T17:10:52.203Z,1.00
2023-04-13T17:13:20.288Z,1.00
2023-04-13T17:15:48.350Z,1.00
2023-04-13T17:18:17.752Z,1.00
2023-04-13T17:20:46.031Z,1.00
2023-04-13T17:23:14.081Z,1.00
2023-04-13T17:25:42.134Z,1.00
2023-04-13T17:28:10.231Z,1.00
2023-04-13T17:30:38.378Z,1.00
2023-04-13T17:33:06.674Z,1.00
2023-04-13T17:35:36.470Z,1.00
2023-04-13T17:38:04.707Z,1.00
2023-04-13T17:40:32.890Z,1.00
2023-04-13T17:43:00.956Z,1.00
2023-04-13T17:45:29.116Z,1.00
2023-04-13T17:47:58.372Z,1.00
2023-04-13T17:50:26.565Z,1.00
2023-04-13T17:52:56.110Z,1.00
2023-04-13T17:55:23.967Z,1.00
2023-04-13T17:57:52.044Z,2.30
2023-04-13T18:00:20.477Z,1.00
2023-04-13T18:02:50.450Z,4.10
2023-04-13T18:05:18.754Z,8.50
2023-04-13T18:07:46.817Z,5.60
2023-04-13T18:10:16.275Z,8.70
2023-04-13T18:12:44.151Z,11.60
2023-04-13T18:15:12.389Z,11.40
2023-04-13T18:17:40.930Z,13.40
2023-04-13T18:20:10.218Z,12.60
2023-04-13T18:22:38.270Z,12.70
2023-04-13T18:25:06.772Z,13.20
2023-04-13T18:27:36.195Z,14.80
2023-04-13T18:30:04.510Z,18.70
2023-04-13T18:32:32.578Z,24.10
2023-04-13T18:35:00.641Z,29.60
2023-04-13T18:37:28.655Z,31.40
2023-04-13T18:39:57.745Z,28.30
2023-04-13T18:42:25.917Z,20.80
2023-04-13T18:44:55.371Z,21.70
2023-04-13T18:47:24.171Z,21.20
2023-04-13T18:49:52.306Z,24.00
2023-04-13T18:52:20.627Z,26.00
2023-04-13T18:54:48.678Z,27.10
2023-04-13T18:57:16.748Z,25.60
2023-04-13T18:59:45.290Z,30.70
2023-04-13T19:02:15.225Z,26.90
2023-04-13T19:04:43.585Z,29.70
2023-04-13T19:07:11.722Z,25.20
2023-04-13T19:09:39.960Z,28.70
2023-04-13T19:12:09.083Z,28.50
2023-04-13T19:14:37.125Z,28.10
2023-04-13T19:17:05.601Z,26.80
2023-04-13T19:19:35.079Z,25.00
2023-04-13T19:22:02.975Z,31.80
2023-04-13T19:24:31.034Z,39.40
2023-04-13T19:26:59.310Z,36.60
2023-04-13T19:29:30.181Z,45.20
2023-04-13T19:31:58.489Z,40.90
2023-04-13T19:34:26.684Z,37.90
2023-04-13T19:36:56.386Z,38.40
2023-04-13T19:39:24.445Z,41.60
2023-04-13T19:41:53.292Z,36.70
2023-04-13T19:44:21.397Z,28.40
2023-04-13T19:46:49.477Z,23.50
2023-04-13T19:49:17.583Z,27.90
2023-04-13T19:51:45.634Z,28.30
2023-04-13T19:54:15.092Z,32.10
2023-04-13T19:56:43.884Z,32.10
2023-04-13T19:59:12.261Z,33.00
2023-04-13T20:01:40.676Z,29.90
2023-04-13T20:04:09.641Z,31.00
2023-04-13T20:06:37.804Z,30.70
2023-04-13T20:09:10.378Z,32.60
2023-04-13T20:11:41.143Z,35.70
2023-04-13T20:14:09.542Z,35.20
2023-04-13T20:16:37.758Z,36.00
2023-04-13T20:19:06.714Z,41.10
2023-04-13T20:21:34.837Z,45.20
2023-04-13T20:24:03.319Z,46.70
2023-04-13T20:26:32.557Z,44.70
2023-04-13T20:29:04.402Z,50.80
2023-04-13T20:31:34.573Z,54.00
2023-04-13T20:34:03.911Z,48.10
2023-04-13T20:36:32.047Z,54.50
2023-04-13T20:39:00.497Z,57.50
2023-04-13T20:41:32.057Z,56.20
2023-04-13T20:44:02.559Z,59.60
2023-04-13T20:46:35.324Z,57.50
2023-04-13T20:49:05.122Z,61.40
2023-04-13T20:51:33.943Z,62.90
2023-04-13T20:54:05.240Z,60.90
2023-04-13T20:56:33.403Z,58.20
2023-04-13T20:59:03.173Z,59.70
2023-04-13T21:01:31.828Z,57.70
2023-04-13T21:04:00.274Z,57.90
2023-04-13T21:06:29.844Z,54.40
2023-04-13T21:08:58.885Z,52.40
2023-04-13T21:11:27.204Z,54.90
2023-04-13T21:13:55.321Z,57.80
2023-04-13T21:16:26.696Z,54.70
2023-04-13T21:18:55.213Z,59.60
2023-04-13T21:21:24.805Z,57.70
2023-04-13T21:23:54.632Z,63.40
2023-04-13T21:26:22.588Z,57.60
2023-04-13T21:28:50.865Z,57.90
2023-04-13T21:31:18.927Z,52.60
2023-04-13T21:33:49.217Z,57.40
2023-04-13T21:38:48.453Z,50.30
2023-04-13T21:41:16.782Z,59.90
2023-04-13T21:43:45.400Z,59.40
2023-04-13T21:46:14.270Z,51.80
2023-04-13T21:48:42.822Z,54.40
2023-04-13T21:51:12.325Z,57.30
2023-04-13T21:53:40.442Z,57.30
2023-04-13T21:56:09.099Z,58.40
2023-04-13T21:58:42.054Z,60.30
2023-04-13T22:01:10.873Z,62.60
2023-04-13T22:03:40.242Z,60.30
2023-04-13T22:06:11.084Z,63.30
2023-04-13T22:08:40.858Z,57.90
2023-04-13T22:11:09.099Z,61.00
2023-04-13T22:13:37.198Z,68.10
2023-04-13T22:16:05.529Z,69.40
2023-04-13T22:18:33.603Z,63.50
2023-04-13T22:21:01.718Z,68.40
2023-04-13T22:23:30.669Z,71.60
2023-04-13T22:26:01.453Z,75.40
2023-04-13T22:28:30.368Z,70.70
2023-04-13T22:30:58.560Z,73.80
2023-04-13T22:33:31.633Z,72.70
2023-04-13T22:35:59.957Z,77.50
2023-04-13T22:38:28.009Z,80.00
2023-04-13T22:40:56.124Z,76.20
2023-04-13T22:43:25.800Z,78.80
2023-04-13T22:46:00.485Z,80.10
2023-04-13T22:48:29.751Z,81.20
2023-04-13T22:50:57.972Z,65.80
2023-04-13T22:53:26.980Z,75.10
2023-04-13T22:55:55.032Z,72.40
2023-04-13T22:58:23.076Z,79.80
2023-04-13T23:00:52.533Z,85.30
2023-04-13T23:03:21.269Z,83.30
2023-04-13T23:05:49.489Z,80.30
2023-04-13T23:08:17.522Z,82.20
2023-04-13T23:10:45.557Z,88.50
2023-04-13T23:13:13.630Z,88.70
2023-04-13T23:15:41.644Z,81.20
2023-04-13T23:18:10.978Z,79.10
2023-04-13T23:20:39.049Z,84.50
2023-04-13T23:23:07.061Z,85.10
2023-04-13T23:25:35.064Z,83.70
2023-04-13T23:28:03.132Z,89.70
2023-04-13T23:30:31.171Z,85.30
2023-04-13T23:32:59.579Z,72.50
2023-04-13T23:35:29.044Z,66.00
2023-04-13T23:37:57.084Z,76.70
2023-04-13T23:40:25.138Z,82.10
2023-04-13T23:42:53.218Z,84.60
2023-04-13T23:45:21.257Z,84.50
2023-04-13T23:47:49.324Z,84.40
2023-04-13T23:50:18.006Z,86.20
2023-04-13T23:52:47.422Z,78.40
2023-04-13T23:55:15.656Z,70.10
2023-04-13T23:57:43.784Z,72.70
